createdAt,value
2023-03-23T16:00:28.255Z,15.40
2023-03-23T16:03:38.868Z,15.46
2023-03-23T16:06:43.209Z,15.47
2023-03-23T16:09:46.590Z,15.44
2023-03-23T16:12:50.646Z,15.44
2023-03-23T16:15:55.725Z,15.34
2023-03-23T16:18:59.405Z,15.35
2023-03-23T16:22:02.880Z,15.22
2023-03-23T16:25:07.494Z,15.35
2023-03-23T16:28:13.329Z,15.10
2023-03-23T16:31:18.319Z,15.06
2023-03-23T16:34:21.933Z,15.20
2023-03-23T16:37:25.867Z,14.98
2023-03-23T16:40:29.469Z,14.98
2023-03-23T16:43:32.890Z,14.95
2023-03-23T16:46:38.434Z,14.81
2023-03-23T16:49:42.161Z,14.69
2023-03-23T16:52:47.739Z,14.73
2023-03-23T16:55:52.984Z,14.79
2023-03-23T16:58:56.386Z,14.74
2023-03-23T17:02:03.741Z,14.74
2023-03-23T17:05:07.912Z,14.71
2023-03-23T17:08:11.983Z,14.70
2023-03-23T17:11:15.570Z,14.73
2023-03-23T17:14:19.148Z,14.83
2023-03-23T17:17:25.066Z,14.82
2023-03-23T17:20:28.619Z,14.81
2023-03-23T17:23:32.126Z,14.76
2023-03-23T17:26:37.188Z,14.81
2023-03-23T17:29:40.817Z,14.70
2023-03-23T17:32:47.533Z,14.67
2023-03-23T17:35:52.273Z,14.62
2023-03-23T17:38:56.242Z,14.63
2023-03-23T17:42:00.181Z,14.66
2023-03-23T17:45:04.992Z,14.65
2023-03-23T17:48:10.182Z,14.56
2023-03-23T17:51:13.700Z,14.43
2023-03-23T17:54:17.207Z,14.50
2023-03-23T17:57:21.375Z,14.46
2023-03-23T18:00:25.467Z,14.36
2023-03-23T18:03:30.849Z,14.33
2023-03-23T18:06:34.845Z,14.36
2023-03-23T18:09:43.529Z,14.34
2023-03-23T18:12:51.595Z,14.33
2023-03-23T18:15:56.253Z,14.38
2023-03-23T18:19:01.414Z,14.42
2023-03-23T18:22:05.074Z,14.50
2023-03-23T18:25:08.829Z,14.33
2023-03-23T18:28:12.320Z,14.41
2023-03-23T18:31:17.665Z,14.34
2023-03-23T18:34:23.053Z,14.35
2023-03-23T18:37:26.798Z,14.46
2023-03-23T18:40:30.793Z,14.34
2023-03-23T18:43:35.136Z,14.31
2023-03-23T18:46:40.691Z,14.27
2023-03-23T18:49:47.427Z,14.31
2023-03-23T18:52:50.875Z,14.29
2023-03-23T18:55:55.144Z,14.38
2023-03-23T18:58:58.580Z,14.24
2023-03-23T19:02:02.800Z,14.23
2023-03-23T19:05:08.411Z,14.22
2023-03-23T19:08:12.032Z,14.15
2023-03-23T19:11:16.345Z,14.20
2023-03-23T19:14:19.839Z,14.36
2023-03-23T19:17:25.197Z,14.24
2023-03-23T19:23:36.694Z,14.22
2023-03-23T19:26:43.426Z,14.26
2023-03-23T19:29:47.665Z,14.27
2023-03-23T19:32:51.304Z,14.33
2023-03-23T19:36:06.762Z,14.35
2023-03-23T19:39:13.693Z,14.30
2023-03-23T19:42:18.684Z,14.18
2023-03-23T19:45:25.240Z,14.29
2023-03-23T19:48:30.280Z,14.29
2023-03-23T19:51:35.102Z,14.23
2023-03-23T19:54:40.966Z,14.18
2023-03-23T19:57:44.720Z,14.25
2023-03-23T20:00:51.080Z,14.30
2023-03-23T20:03:57.209Z,14.25
2023-03-23T20:07:07.483Z,14.26
2023-03-23T20:10:11.569Z,14.22
2023-03-23T20:13:15.102Z,14.24
2023-03-23T20:16:19.754Z,14.28
2023-03-23T20:19:23.542Z,14.38
2023-03-23T20:22:28.773Z,14.38
2023-03-23T20:25:32.231Z,14.31
2023-03-23T20:28:39.405Z,14.26
2023-03-23T20:31:43.316Z,14.20
2023-03-23T20:34:49.485Z,14.23
2023-03-23T20:37:54.933Z,14.23
2023-03-23T20:40:59.774Z,14.28
2023-03-23T20:44:03.636Z,14.19
2023-03-23T20:47:08.342Z,14.05
2023-03-23T20:50:13.831Z,14.02
2023-03-23T20:53:18.880Z,13.95
2023-03-23T20:56:26.842Z,13.96
2023-03-23T20:59:31.014Z,13.94
2023-03-23T21:02:35.579Z,13.93
2023-03-23T21:05:41.366Z,14.07
2023-03-23T21:08:46.890Z,13.96
2023-03-23T21:11:52.830Z,13.97
2023-03-23T21:14:56.970Z,14.00
2023-03-23T21:18:00.491Z,13.92
2023-03-23T21:21:10.534Z,13.98
2023-03-23T21:24:16.484Z,13.98
2023-03-23T21:27:22.065Z,14.04
2023-03-23T21:36:13.635Z,14.02
2023-03-23T21:39:21.319Z,14.03
2023-03-23T21:42:30.129Z,14.07
2023-03-23T21:45:34.805Z,14.11
2023-03-23T21:48:41.556Z,14.07
2023-03-23T21:51:45.201Z,14.00
2023-03-23T21:54:50.265Z,13.99
2023-03-23T21:57:53.808Z,13.97
2023-03-23T22:00:59.220Z,13.92
2023-03-23T22:04:02.716Z,13.89
2023-03-23T22:07:07.542Z,13.82
2023-03-23T22:10:12.752Z,13.70
2023-03-23T22:13:18.398Z,13.68
2023-03-23T22:16:23.418Z,13.70
2023-03-23T22:19:27.026Z,13.66
2023-03-23T22:22:30.576Z,13.60
2023-03-23T22:25:36.336Z,13.55
2023-03-23T22:28:40.153Z,13.57
2023-03-23T22:31:44.388Z,13.46
2023-03-23T22:34:49.368Z,13.45
2023-03-23T22:37:53.335Z,13.43
2023-03-23T22:41:01.218Z,13.42
2023-03-23T22:44:05.734Z,13.48
2023-03-23T22:47:09.557Z,13.44
2023-03-23T22:50:13.020Z,13.36
2023-03-23T22:53:17.454Z,13.36
2023-03-23T22:56:22.982Z,13.26
2023-03-23T22:59:26.559Z,13.27
2023-03-23T23:02:30.237Z,13.33
2023-03-23T23:05:33.796Z,13.15
2023-03-23T23:08:41.621Z,13.12
2023-03-23T23:11:46.587Z,13.01
2023-03-23T23:14:50.595Z,12.99
2023-03-23T23:17:54.307Z,12.88
2023-03-23T23:21:00.138Z,12.84
2023-03-23T23:24:03.858Z,12.67
2023-03-23T23:27:09.215Z,12.68
2023-03-23T23:30:14.151Z,12.55
2023-03-23T23:33:18.924Z,12.54
2023-03-23T23:36:23.096Z,12.49
2023-03-23T23:39:28.045Z,12.49
2023-03-23T23:42:33.209Z,12.32
2023-03-23T23:45:36.888Z,11.82
2023-03-23T23:48:40.697Z,11.56
2023-03-23T23:51:44.876Z,11.31
2023-03-23T23:54:49.341Z,11.07
2023-03-23T23:57:57.498Z,10.98
